Time;durP1;ratioP1;P1;durP2;ratioP2;P2;SDS_P1;SDS_P2;PMS_P1;PMS_P2;Temp;Humidity;BMP_temperature;BMP_pressure;BME280_temperature;BME280_humidity;BME280_pressure;Samples;Min_cycle;Max_cycle;Signal;HPM_P1;HPM_P2
2023/01/02 00:02:47;;;;;;;26.30;18.88;;;;;;;;;;6280323;28;20045;-76
2023/01/02 00:05:48;;;;;;;28.40;20.00;;;;;;;;;;6281471;28;20051;-75
2023/01/02 00:08:50;;;;;;;26.13;19.23;;;;;;;;;;6279398;28;20051;-78
2023/01/02 00:11:52;;;;;;;26.17;19.08;;;;;;;;;;6275826;28;20045;-79
2023/01/02 00:14:53;;;;;;;24.63;18.83;;;;;;;;;;6278970;28;20057;-78
2023/01/02 00:17:56;;;;;;;28.48;19.92;;;;;;;;;;6281466;28;20041;-76
2023/01/02 00:21:02;;;;;;;25.75;18.65;;;;;;;;;;6278683;28;20053;-74
2023/01/02 00:24:05;;;;;;;25.83;18.70;;;;;;;;;;6280278;28;20267;-79
2023/01/02 00:27:06;;;;;;;25.45;18.30;;;;;;;;;;6281454;28;20210;-76
2023/01/02 00:30:09;;;;;;;23.25;17.90;;;;;;;;;;6275361;28;20090;-75
2023/01/02 00:33:12;;;;;;;26.45;19.50;;;;;;;;;;6277034;28;20356;-78
2023/01/02 00:36:14;;;;;;;25.23;18.75;;;;;;;;;;6276995;28;20095;-76
2023/01/02 00:39:16;;;;;;;26.63;19.50;;;;;;;;;;6279895;28;20056;-76
2023/01/02 00:42:17;;;;;;;27.17;19.73;;;;;;;;;;6278437;28;20045;-79
2023/01/02 00:45:19;;;;;;;28.13;20.98;;;;;;;;;;6282309;28;20079;-76
2023/01/02 00:48:22;;;;;;;30.48;20.15;;;;;;;;;;6282231;28;20072;-76
2023/01/02 00:51:24;;;;;;;29.15;20.67;;;;;;;;;;6280402;28;20090;-75
2023/01/02 00:54:25;;;;;;;27.05;19.98;;;;;;;;;;6283100;28;20095;-76
2023/01/02 00:57:27;;;;;;;26.60;18.75;;;;;;;;;;6280398;28;20053;-78
2023/01/02 01:00:29;;;;;;;33.05;21.63;;;;;;;;;;6280917;28;20049;-79
2023/01/02 01:03:32;;;;;;;29.42;21.27;;;;;;;;;;6279099;28;20056;-78
2023/01/02 01:06:34;;;;;;;26.70;19.23;;;;;;;;;;6280970;28;20268;-73
2023/01/02 01:09:35;;;;;;;28.85;20.65;;;;;;;;;;6279990;28;20049;-78
2023/01/02 01:12:37;;;;;;;34.90;22.17;;;;;;;;;;6280735;28;20044;-77
2023/01/02 01:15:39;;;;;;;30.50;21.55;;;;;;;;;;6280887;28;20045;-77
2023/01/02 01:18:42;;;;;;;32.42;21.48;;;;;;;;;;6280225;28;20052;-77
2023/01/02 01:21:44;;;;;;;30.92;21.75;;;;;;;;;;6279384;28;20056;-77
2023/01/02 01:24:46;;;;;;;30.80;20.63;;;;;;;;;;6278522;28;20066;-77
2023/01/02 01:27:47;;;;;;;28.85;20.38;;;;;;;;;;6278604;28;20049;-78
2023/01/02 01:30:49;;;;;;;29.65;20.45;;;;;;;;;;6283090;28;20106;-78
2023/01/02 01:33:52;;;;;;;31.20;21.90;;;;;;;;;;6280596;28;20291;-77
2023/01/02 01:36:54;;;;;;;32.28;21.48;;;;;;;;;;6281909;28;20052;-73
2023/01/02 01:39:55;;;;;;;31.13;21.90;;;;;;;;;;6281128;28;20049;-73
2023/01/02 01:42:57;;;;;;;38.42;25.73;;;;;;;;;;6276871;28;20053;-78
2023/01/02 01:45:59;;;;;;;40.80;26.85;;;;;;;;;;6279823;28;20145;-77
2023/01/02 01:49:04;;;;;;;39.42;27.77;;;;;;;;;;6276502;28;20045;-72
2023/01/02 01:52:09;;;;;;;43.22;29.52;;;;;;;;;;6282491;28;20049;-77
2023/01/02 01:55:14;;;;;;;41.35;28.00;;;;;;;;;;6279374;28;20449;-76
2023/01/02 01:58:19;;;;;;;41.03;27.65;;;;;;;;;;6279237;28;20053;-76
2023/01/02 02:01:20;;;;;;;39.45;26.60;;;;;;;;;;6279736;28;20045;-78
2023/01/02 02:04:25;;;;;;;40.58;28.02;;;;;;;;;;6279553;28;20106;-77
2023/01/02 02:07:27;;;;;;;42.60;28.73;;;;;;;;;;6277864;28;20049;-75
2023/01/02 02:10:28;;;;;;;43.40;27.95;;;;;;;;;;6279735;28;20044;-73
2023/01/02 02:13:30;;;;;;;43.25;29.88;;;;;;;;;;6279685;28;20055;-78
2023/01/02 02:16:37;;;;;;;45.90;30.02;;;;;;;;;;6276450;28;20056;-77
2023/01/02 02:20:01;;;;;;;41.15;29.40;;;;;;;;;;6278925;28;20232;-77
2023/01/02 02:23:38;;;;;;;44.83;28.97;;;;;;;;;;6283073;28;20057;-77
2023/01/02 02:27:02;;;;;;;45.08;29.27;;;;;;;;;;6279603;28;20485;-75
2023/01/02 02:30:16;;;;;;;44.33;29.92;;;;;;;;;;6278755;28;20051;-77
2023/01/02 02:33:25;;;;;;;41.95;28.98;;;;;;;;;;6278206;28;20040;-76
2023/01/02 02:36:31;;;;;;;41.75;27.88;;;;;;;;;;6278200;28;20045;-75
2023/01/02 02:39:40;;;;;;;47.25;30.85;;;;;;;;;;6280987;28;20158;-77
2023/01/02 02:42:50;;;;;;;45.67;30.42;;;;;;;;;;6278882;28;20214;-77
2023/01/02 02:46:00;;;;;;;51.65;33.33;;;;;;;;;;6279430;28;20059;-77
2023/01/02 02:49:07;;;;;;;47.25;31.30;;;;;;;;;;6278286;28;20059;-77
2023/01/02 02:52:14;;;;;;;49.65;31.58;;;;;;;;;;6276384;28;20057;-77
2023/01/02 02:55:20;;;;;;;46.92;31.92;;;;;;;;;;6279431;28;20049;-77
2023/01/02 02:58:23;;;;;;;49.28;31.77;;;;;;;;;;6277331;28;20329;-77
2023/01/02 03:01:28;;;;;;;48.83;32.67;;;;;;;;;;6278546;28;20324;-77
2023/01/02 03:04:29;;;;;;;54.10;33.42;;;;;;;;;;6279354;28;20108;-77
2023/01/02 03:07:36;;;;;;;49.30;31.90;;;;;;;;;;6279540;28;20291;-77
2023/01/02 03:10:44;;;;;;;45.78;29.98;;;;;;;;;;6276028;28;20373;-77
2023/01/02 03:13:54;;;;;;;50.08;31.10;;;;;;;;;;6275245;28;20045;-75
2023/01/02 03:17:01;;;;;;;49.47;32.10;;;;;;;;;;6275524;28;20053;-76
2023/01/02 03:20:07;;;;;;;53.13;31.98;;;;;;;;;;6276168;28;20052;-77
2023/01/02 03:23:13;;;;;;;52.25;31.58;;;;;;;;;;6275526;28;20343;-77
2023/01/02 03:26:17;;;;;;;48.78;31.92;;;;;;;;;;6276366;28;20053;-78
2023/01/02 03:29:21;;;;;;;51.35;33.45;;;;;;;;;;6278294;28;20049;-77
2023/01/02 03:32:27;;;;;;;49.20;32.20;;;;;;;;;;6277406;28;20056;-73
2023/01/02 03:35:33;;;;;;;49.13;32.30;;;;;;;;;;6275838;28;20067;-77
2023/01/02 03:38:37;;;;;;;48.83;30.80;;;;;;;;;;6275135;28;20048;-77
2023/01/02 03:41:43;;;;;;;51.25;33.70;;;;;;;;;;6278723;28;20217;-77
2023/01/02 03:44:48;;;;;;;45.65;30.08;;;;;;;;;;6277810;28;20048;-76
2023/01/02 03:47:57;;;;;;;46.72;31.40;;;;;;;;;;6277717;28;20056;-76
2023/01/02 03:51:01;;;;;;;48.08;31.10;;;;;;;;;;6276085;28;20344;-74
2023/01/02 03:54:03;;;;;;;47.17;30.75;;;;;;;;;;6275748;28;20055;-78
2023/01/02 03:57:10;;;;;;;47.10;30.25;;;;;;;;;;6277932;28;20104;-78
2023/01/02 04:00:13;;;;;;;47.00;28.90;;;;;;;;;;6276662;28;20049;-77
2023/01/02 04:03:19;;;;;;;46.33;29.67;;;;;;;;;;6276356;28;20056;-78
2023/01/02 04:06:25;;;;;;;48.92;31.25;;;;;;;;;;6274980;28;20049;-74
2023/01/02 04:09:28;;;;;;;48.88;31.25;;;;;;;;;;6278166;28;20124;-78
2023/01/02 04:12:32;;;;;;;52.63;32.08;;;;;;;;;;6274085;28;20053;-77
2023/01/02 04:15:36;;;;;;;50.88;30.88;;;;;;;;;;6276890;28;20045;-77
2023/01/02 04:18:42;;;;;;;52.33;31.90;;;;;;;;;;6274462;28;20044;-77
2023/01/02 04:21:45;;;;;;;52.63;32.80;;;;;;;;;;6276053;28;20046;-76
2023/01/02 04:24:53;;;;;;;54.08;33.83;;;;;;;;;;6275004;28;20048;-78
2023/01/02 04:27:58;;;;;;;54.72;33.83;;;;;;;;;;6276431;28;20052;-78
2023/01/02 04:31:05;;;;;;;56.90;34.00;;;;;;;;;;6279415;28;20057;-77
2023/01/02 04:34:11;;;;;;;54.55;33.30;;;;;;;;;;6277000;28;20094;-77
2023/01/02 04:37:26;;;;;;;53.88;32.75;;;;;;;;;;6278930;28;20244;-73
2023/01/02 04:40:30;;;;;;;56.80;33.13;;;;;;;;;;6273329;28;20040;-73
2023/01/02 04:43:31;;;;;;;54.78;32.58;;;;;;;;;;6274642;28;20321;-77
2023/01/02 04:46:33;;;;;;;51.58;31.27;;;;;;;;;;6277581;28;20117;-77
2023/01/02 04:49:36;;;;;;;50.30;31.55;;;;;;;;;;6278440;28;20264;-78
2023/01/02 04:52:37;;;;;;;49.88;30.48;;;;;;;;;;6276027;28;20048;-77
2023/01/02 04:55:39;;;;;;;53.38;32.03;;;;;;;;;;6275347;28;20052;-77
2023/01/02 04:58:41;;;;;;;55.38;32.03;;;;;;;;;;6275199;28;20309;-77
2023/01/02 05:01:43;;;;;;;50.08;30.27;;;;;;;;;;6277580;28;20057;-77
2023/01/02 05:04:46;;;;;;;47.33;28.15;;;;;;;;;;6275116;28;20044;-77
2023/01/02 05:07:48;;;;;;;42.28;25.98;;;;;;;;;;6276458;28;20336;-75
2023/01/02 05:10:49;;;;;;;45.05;27.17;;;;;;;;;;6274876;28;20099;-76
2023/01/02 05:13:51;;;;;;;42.33;25.65;;;;;;;;;;6276743;28;20083;-76
2023/01/02 05:16:52;;;;;;;43.13;25.52;;;;;;;;;;6274807;28;20053;-77
2023/01/02 05:19:55;;;;;;;35.40;22.13;;;;;;;;;;6275807;28;20106;-77
2023/01/02 05:26:17;;;;;;;35.97;22.45;;;;;;;;;;6273878;28;20516;-77
2023/01/02 05:29:19;;;;;;;34.42;20.88;;;;;;;;;;6277588;28;20226;-77
2023/01/02 05:32:20;;;;;;;33.08;20.98;;;;;;;;;;6278269;28;20041;-74
2023/01/02 05:35:23;;;;;;;31.98;20.15;;;;;;;;;;6279927;28;20049;-77
2023/01/02 05:38:25;;;;;;;37.30;20.90;;;;;;;;;;6280006;28;20053;-76
2023/01/02 05:41:27;;;;;;;35.30;21.73;;;;;;;;;;6278887;28;20283;-76
2023/01/02 05:44:29;;;;;;;33.88;20.92;;;;;;;;;;6281021;28;20053;-77
2023/01/02 05:47:30;;;;;;;35.33;20.63;;;;;;;;;;6278780;28;20091;-75
2023/01/02 05:50:33;;;;;;;32.13;19.80;;;;;;;;;;6281753;28;20435;-78
2023/01/02 05:53:35;;;;;;;47.95;28.40;;;;;;;;;;6281056;28;20045;-72
2023/01/02 05:56:37;;;;;;;52.35;31.98;;;;;;;;;;6277456;28;20096;-78
2023/01/02 05:59:38;;;;;;;53.67;31.88;;;;;;;;;;6279433;28;20052;-76
2023/01/02 06:02:40;;;;;;;51.70;32.13;;;;;;;;;;6278498;28;20049;-77
2023/01/02 06:05:43;;;;;;;54.22;32.03;;;;;;;;;;6279806;28;20044;-77
2023/01/02 06:08:45;;;;;;;50.60;31.52;;;;;;;;;;6277754;28;20045;-78
2023/01/02 06:11:46;;;;;;;53.58;33.15;;;;;;;;;;6278774;28;20056;-77
2023/01/02 06:14:48;;;;;;;52.15;32.47;;;;;;;;;;6278644;28;20102;-77
2023/01/02 06:17:50;;;;;;;57.63;35.53;;;;;;;;;;6278950;28;20057;-77
2023/01/02 06:20:57;;;;;;;54.58;32.75;;;;;;;;;;6278533;28;20059;-78
2023/01/02 06:23:59;;;;;;;53.17;33.47;;;;;;;;;;6279052;28;20095;-78
2023/01/02 06:27:01;;;;;;;54.03;33.70;;;;;;;;;;6277998;28;20044;-75
2023/01/02 06:30:03;;;;;;;50.53;31.83;;;;;;;;;;6279173;28;20060;-76
2023/01/02 06:33:05;;;;;;;53.55;33.17;;;;;;;;;;6277373;28;20398;-76
2023/01/02 06:36:10;;;;;;;55.22;33.08;;;;;;;;;;6278507;28;20044;-78
2023/01/02 06:39:12;;;;;;;57.13;34.05;;;;;;;;;;6276778;28;20044;-78
2023/01/02 06:42:14;;;;;;;58.85;33.70;;;;;;;;;;6276775;28;20060;-78
2023/01/02 06:45:15;;;;;;;60.13;35.22;;;;;;;;;;6278950;28;20102;-78
2023/01/02 06:48:17;;;;;;;55.35;33.72;;;;;;;;;;6278820;28;20053;-77
2023/01/02 06:51:22;;;;;;;55.08;33.95;;;;;;;;;;6277510;28;20052;-77
2023/01/02 06:54:23;;;;;;;60.83;34.85;;;;;;;;;;6278533;28;20049;-75
2023/01/02 06:57:25;;;;;;;60.13;34.65;;;;;;;;;;6277633;28;20048;-77
2023/01/02 07:00:27;;;;;;;60.55;33.38;;;;;;;;;;6277586;28;20213;-76
2023/01/02 07:03:28;;;;;;;60.35;33.28;;;;;;;;;;6276687;28;20051;-75
2023/01/02 07:06:31;;;;;;;59.28;34.03;;;;;;;;;;6275128;28;20057;-75
2023/01/02 07:09:33;;;;;;;68.68;34.42;;;;;;;;;;6276612;28;20053;-73
2023/01/02 07:12:35;;;;;;;60.38;34.03;;;;;;;;;;6277116;28;20053;-76
2023/01/02 07:15:37;;;;;;;70.63;36.92;;;;;;;;;;6275119;28;20053;-76
2023/01/02 07:18:39;;;;;;;69.55;36.63;;;;;;;;;;6276457;28;20044;-76
2023/01/02 07:21:42;;;;;;;71.05;37.55;;;;;;;;;;6276427;28;20224;-75
2023/01/02 07:24:43;;;;;;;71.63;36.08;;;;;;;;;;6277704;28;20057;-77
2023/01/02 07:27:45;;;;;;;81.78;40.88;;;;;;;;;;6276925;28;20083;-75
2023/01/02 07:30:47;;;;;;;84.18;38.75;;;;;;;;;;6277615;28;20059;-70
2023/01/02 07:33:49;;;;;;;82.25;39.17;;;;;;;;;;6277033;28;20053;-71
2023/01/02 07:36:52;;;;;;;93.45;41.17;;;;;;;;;;6279452;28;20136;-75
2023/01/02 07:39:53;;;;;;;93.72;40.22;;;;;;;;;;6276879;28;20068;-75
2023/01/02 07:42:55;;;;;;;85.20;38.13;;;;;;;;;;6277911;28;20045;-74
2023/01/02 07:46:02;;;;;;;80.53;36.50;;;;;;;;;;6276293;28;20287;-76
2023/01/02 07:49:04;;;;;;;85.03;38.75;;;;;;;;;;6277486;28;20267;-78
2023/01/02 07:52:10;;;;;;;80.63;37.80;;;;;;;;;;6277019;28;20103;-75
2023/01/02 07:55:12;;;;;;;78.28;36.55;;;;;;;;;;6275617;28;20328;-76
2023/01/02 07:58:13;;;;;;;76.72;36.25;;;;;;;;;;6275480;28;20044;-76
2023/01/02 08:01:15;;;;;;;70.35;35.38;;;;;;;;;;6277500;28;20417;-78
2023/01/02 08:04:17;;;;;;;64.32;35.38;;;;;;;;;;6276498;28;20055;-78
2023/01/02 08:07:21;;;;;;;71.97;36.28;;;;;;;;;;6276019;28;20052;-76
2023/01/02 08:10:23;;;;;;;73.15;35.10;;;;;;;;;;6273870;28;20049;-76
2023/01/02 08:13:25;;;;;;;62.17;33.25;;;;;;;;;;6277489;28;20049;-76
2023/01/02 08:16:26;;;;;;;61.80;33.75;;;;;;;;;;6273959;28;20087;-76
2023/01/02 08:19:28;;;;;;;70.07;33.47;;;;;;;;;;6275658;28;20051;-76
2023/01/02 08:22:31;;;;;;;55.33;31.70;;;;;;;;;;6276448;28;20053;-76
2023/01/02 08:25:33;;;;;;;55.33;32.50;;;;;;;;;;6274302;28;20264;-76
2023/01/02 08:28:35;;;;;;;55.55;31.95;;;;;;;;;;6278343;28;20223;-75
2023/01/02 08:31:37;;;;;;;50.22;30.02;;;;;;;;;;6277642;28;20103;-77
2023/01/02 08:34:38;;;;;;;50.95;30.92;;;;;;;;;;6273455;28;20049;-76
2023/01/02 08:37:42;;;;;;;52.47;30.65;;;;;;;;;;6276654;28;20091;-77
2023/01/02 08:40:43;;;;;;;49.58;30.00;;;;;;;;;;6276195;28;20233;-74
2023/01/02 08:43:45;;;;;;;48.80;29.80;;;;;;;;;;6273394;28;20114;-76
2023/01/02 08:46:46;;;;;;;49.38;28.58;;;;;;;;;;6276368;28;20055;-76
2023/01/02 08:49:48;;;;;;;50.22;28.63;;;;;;;;;;6276240;28;20053;-76
2023/01/02 08:52:51;;;;;;;50.45;30.42;;;;;;;;;;6276922;28;20261;-76
2023/01/02 08:55:53;;;;;;;51.42;30.23;;;;;;;;;;6274876;28;20049;-76
2023/01/02 08:58:56;;;;;;;45.90;28.77;;;;;;;;;;6275011;28;20047;-76
2023/01/02 09:01:57;;;;;;;49.88;29.23;;;;;;;;;;6272614;28;20045;-76
2023/01/02 09:04:59;;;;;;;50.03;30.85;;;;;;;;;;6280554;28;20134;-77
2023/01/02 09:08:03;;;;;;;43.80;29.08;;;;;;;;;;6279678;28;20057;-76
2023/01/02 09:11:11;;;;;;;45.33;28.88;;;;;;;;;;6282529;28;20311;-76
2023/01/02 09:14:12;;;;;;;45.55;28.23;;;;;;;;;;6278638;28;20126;-77
2023/01/02 09:17:14;;;;;;;42.70;27.40;;;;;;;;;;6280347;28;20055;-76
2023/01/02 09:20:16;;;;;;;43.38;28.08;;;;;;;;;;6279664;28;20045;-76
2023/01/02 09:23:19;;;;;;;43.35;28.05;;;;;;;;;;6281809;28;20051;-75
2023/01/02 09:26:21;;;;;;;43.20;28.05;;;;;;;;;;6278484;28;20047;-77
2023/01/02 09:29:22;;;;;;;40.67;27.17;;;;;;;;;;6253700;28;20051;-72
2023/01/02 09:32:24;;;;;;;43.30;27.02;;;;;;;;;;6280418;28;20237;-71
2023/01/02 09:35:26;;;;;;;41.80;26.38;;;;;;;;;;6279144;28;20304;-75
2023/01/02 09:38:29;;;;;;;43.00;28.15;;;;;;;;;;6281585;28;20049;-73
2023/01/02 09:41:34;;;;;;;36.67;25.63;;;;;;;;;;6280045;28;20060;-76
2023/01/02 09:44:38;;;;;;;42.97;27.67;;;;;;;;;;6280362;28;20048;-75
2023/01/02 09:47:39;;;;;;;;;;;;;;;;;;6278899;28;20586;-76
2023/01/02 09:50:41;;;;;;;41.45;26.08;;;;;;;;;;6278303;28;20259;-76
2023/01/02 09:53:44;;;;;;;37.88;24.95;;;;;;;;;;6279179;28;20094;-77
2023/01/02 09:56:49;;;;;;;38.13;24.63;;;;;;;;;;6278987;28;20605;-76
2023/01/02 09:59:57;;;;;;;37.72;23.55;;;;;;;;;;6279410;28;20257;-76
2023/01/02 10:03:06;;;;;;;35.55;24.15;;;;;;;;;;6278346;28;20071;-74
2023/01/02 10:06:11;;;;;;;41.03;25.85;;;;;;;;;;6279668;28;20053;-76
2023/01/02 10:09:19;;;;;;;35.10;23.88;;;;;;;;;;6278221;28;20045;-77
2023/01/02 10:12:26;;;;;;;34.45;22.95;;;;;;;;;;6277866;28;20061;-77
2023/01/02 10:15:29;;;;;;;32.25;22.80;;;;;;;;;;6276804;28;20055;-75
2023/01/02 10:18:34;;;;;;;36.00;23.35;;;;;;;;;;6252486;28;20052;-77
2023/01/02 10:21:37;;;;;;;31.98;23.65;;;;;;;;;;6275602;28;20071;-76
2023/01/02 10:24:44;;;;;;;31.65;22.75;;;;;;;;;;6278294;28;20049;-77
2023/01/02 10:27:49;;;;;;;29.92;21.65;;;;;;;;;;6276195;28;20390;-76
2023/01/02 10:30:54;;;;;;;29.73;20.67;;;;;;;;;;6278853;28;20052;-76
2023/01/02 10:33:58;;;;;;;32.13;22.08;;;;;;;;;;6278915;28;20049;-76
2023/01/02 10:37:00;;;;;;;;;;;;;;;;;;6280461;28;20272;-77
2023/01/02 10:40:04;;;;;;;29.48;19.90;;;;;;;;;;6277082;28;19978;-77
2023/01/02 10:43:05;;;;;;;31.60;19.52;;;;;;;;;;6277053;28;20280;-75
2023/01/02 10:46:07;;;;;;;28.58;20.02;;;;;;;;;;6280065;28;20048;-77
2023/01/02 10:49:09;;;;;;;30.63;21.30;;;;;;;;;;6280520;28;20055;-77
2023/01/02 10:52:14;;;;;;;32.38;20.40;;;;;;;;;;6276438;28;20053;-73
2023/01/02 10:55:29;;;;;;;28.90;21.02;;;;;;;;;;6250415;28;20056;-77
2023/01/02 10:58:34;;;;;;;32.28;21.15;;;;;;;;;;6278563;28;20048;-77
2023/01/02 11:01:49;;;;;;;31.48;21.38;;;;;;;;;;6276607;28;20103;-77
2023/01/02 11:04:52;;;;;;;31.33;22.23;;;;;;;;;;6278663;28;20536;-77
2023/01/02 11:07:54;;;;;;;28.40;20.10;;;;;;;;;;6279247;28;20071;-77
2023/01/02 11:11:00;;;;;;;42.45;27.77;;;;;;;;;;6277283;28;20056;-76
2023/01/02 11:14:06;;;;;;;33.28;21.60;;;;;;;;;;6278526;28;20067;-76
2023/01/02 11:17:13;;;;;;;28.35;20.08;;;;;;;;;;6275305;28;20049;-77
2023/01/02 11:20:24;;;;;;;26.90;18.65;;;;;;;;;;6277019;28;20094;-76
2023/01/02 11:23:26;;;;;;;28.90;19.38;;;;;;;;;;6275944;28;20225;-72
2023/01/02 11:26:30;;;;;;;30.35;19.63;;;;;;;;;;6277645;28;20091;-77
2023/01/02 11:29:33;;;;;;;31.42;21.35;;;;;;;;;;6277793;28;20049;-77
2023/01/02 11:32:37;;;;;;;30.88;21.33;;;;;;;;;;6275636;28;20237;-77
2023/01/02 11:35:44;;;;;;;31.73;20.67;;;;;;;;;;6277252;28;20415;-77
2023/01/02 11:38:47;;;;;;;32.20;19.73;;;;;;;;;;6277418;28;20052;-76
2023/01/02 11:45:20;;;;;;;38.97;24.25;;;;;;;;;;6277814;28;20041;-77
2023/01/02 11:48:23;;;;;;;29.27;19.85;;;;;;;;;;6278335;28;20076;-77
2023/01/02 11:51:26;;;;;;;34.10;22.45;;;;;;;;;;6276434;28;20060;-75
2023/01/02 11:54:38;;;;;;;33.13;21.42;;;;;;;;;;6274089;28;20470;-77
2023/01/02 11:57:46;;;;;;;31.00;20.58;;;;;;;;;;6275895;28;20072;-79
2023/01/02 12:00:51;;;;;;;31.48;20.60;;;;;;;;;;6249256;28;20104;-77
2023/01/02 12:03:52;;;;;;;34.30;21.77;;;;;;;;;;6274589;28;20264;-77
2023/01/02 12:07:04;;;;;;;33.92;21.92;;;;;;;;;;6275419;28;20053;-77
2023/01/02 12:10:16;;;;;;;33.97;22.33;;;;;;;;;;6276392;28;20095;-77
2023/01/02 12:13:30;;;;;;;36.45;22.75;;;;;;;;;;6274268;28;20102;-76
2023/01/02 12:16:36;;;;;;;32.47;21.05;;;;;;;;;;6275675;28;20340;-76
2023/01/02 12:20:06;;;;;;;32.60;21.08;;;;;;;;;;6274699;28;20449;-77
2023/01/02 12:23:18;;;;;;;31.40;20.02;;;;;;;;;;6275833;28;20049;-75
2023/01/02 12:26:25;;;;;;;30.23;20.25;;;;;;;;;;6274757;28;20063;-77
2023/01/02 12:29:36;;;;;;;29.58;20.17;;;;;;;;;;6276865;28;20045;-72
2023/01/02 12:33:11;;;;;;;30.73;20.10;;;;;;;;;;6276149;28;20056;-76
2023/01/02 12:36:22;;;;;;;31.33;19.90;;;;;;;;;;6254539;28;20238;-77
2023/01/02 12:39:55;;;;;;;30.80;20.95;;;;;;;;;;6253735;28;20267;-76
2023/01/02 12:43:08;;;;;;;31.92;20.15;;;;;;;;;;6256454;28;20057;-77
2023/01/02 12:46:17;;;;;;;32.17;21.23;;;;;;;;;;6254063;28;20313;-75
2023/01/02 12:49:43;;;;;;;31.38;21.48;;;;;;;;;;6255202;28;20291;-77
2023/01/02 12:52:51;;;;;;;30.20;21.10;;;;;;;;;;6256547;28;20047;-76
2023/01/02 12:56:00;;;;;;;31.40;20.90;;;;;;;;;;6269288;28;20343;-76
2023/01/02 12:59:14;;;;;;;36.42;22.50;;;;;;;;;;6278522;28;20046;-77
2023/01/02 13:02:25;;;;;;;36.20;22.75;;;;;;;;;;6252883;28;20999;-76
2023/01/02 13:05:31;;;;;;;35.22;23.52;;;;;;;;;;6251472;28;20049;-77
2023/01/02 13:08:47;;;;;;;32.85;21.90;;;;;;;;;;6248757;28;20076;-77
2023/01/02 13:11:55;;;;;;;37.00;23.05;;;;;;;;;;6251930;28;20049;-77
2023/01/02 13:14:58;;;;;;;34.08;22.73;;;;;;;;;;6255320;28;20080;-76
2023/01/02 13:18:06;;;;;;;37.20;22.83;;;;;;;;;;6256349;28;20053;-75
2023/01/02 13:21:12;;;;;;;33.17;21.65;;;;;;;;;;6254097;28;20050;-76
2023/01/02 13:24:18;;;;;;;31.90;20.85;;;;;;;;;;6229366;28;20045;-75
2023/01/02 13:27:20;;;;;;;31.38;20.33;;;;;;;;;;6227639;28;20057;-77
2023/01/02 13:30:44;;;;;;;27.90;19.52;;;;;;;;;;6254823;28;20041;-77
2023/01/02 13:33:48;;;;;;;32.13;21.50;;;;;;;;;;6278946;28;20057;-76
2023/01/02 13:36:51;;;;;;;30.58;19.80;;;;;;;;;;6280988;28;20052;-77
2023/01/02 13:39:54;;;;;;;28.77;19.55;;;;;;;;;;6278658;28;20048;-76
2023/01/02 13:43:02;;;;;;;28.40;19.90;;;;;;;;;;6278326;28;20079;-77
2023/01/02 13:46:03;;;;;;;30.40;19.88;;;;;;;;;;6278646;28;20047;-74
2023/01/02 13:49:13;;;;;;;29.13;19.20;;;;;;;;;;6281192;28;20344;-76
2023/01/02 13:52:16;;;;;;;28.83;19.30;;;;;;;;;;6280974;28;20072;-71
2023/01/02 13:55:30;;;;;;;28.52;19.15;;;;;;;;;;6277396;28;20061;-77
2023/01/02 13:58:53;;;;;;;28.33;19.45;;;;;;;;;;6278450;28;20143;-76
2023/01/02 14:02:18;;;;;;;25.13;18.35;;;;;;;;;;6278709;28;20391;-75
2023/01/02 14:05:59;;;;;;;27.85;18.90;;;;;;;;;;6277456;28;20053;-77
2023/01/02 14:09:10;;;;;;;27.42;18.45;;;;;;;;;;6279279;28;20272;-76
2023/01/02 14:12:13;;;;;;;28.30;18.38;;;;;;;;;;6278282;28;20067;-77
2023/01/02 14:15:17;;;;;;;25.88;18.17;;;;;;;;;;6276323;28;20071;-74
2023/01/02 14:18:26;;;;;;;29.27;19.27;;;;;;;;;;6280001;28;20312;-77
2023/01/02 14:21:33;;;;;;;25.02;18.58;;;;;;;;;;6277940;28;20324;-79
2023/01/02 14:24:38;;;;;;;25.00;18.25;;;;;;;;;;6277296;28;20233;-77
2023/01/02 14:27:40;;;;;;;27.05;18.00;;;;;;;;;;6275927;28;20080;-75
2023/01/02 14:30:42;;;;;;;26.98;18.90;;;;;;;;;;6280157;28;20045;-77
2023/01/02 14:33:43;;;;;;;26.83;17.85;;;;;;;;;;6277976;28;20052;-77
2023/01/02 14:36:47;;;;;;;26.63;18.08;;;;;;;;;;6278937;28;20067;-77
2023/01/02 14:39:50;;;;;;;28.50;18.73;;;;;;;;;;6277583;28;20087;-76
2023/01/02 14:46:16;;;;;;;25.67;18.52;;;;;;;;;;6279540;28;20041;-72
2023/01/02 14:49:21;;;;;;;29.50;18.52;;;;;;;;;;6278019;28;20045;-73
2023/01/02 14:52:26;;;;;;;26.63;18.42;;;;;;;;;;6279004;28;20232;-75
2023/01/02 14:55:32;;;;;;;26.00;18.05;;;;;;;;;;6278477;28;20049;-75
2023/01/02 14:58:37;;;;;;;26.27;18.60;;;;;;;;;;6276889;28;20052;-74
2023/01/02 15:01:38;;;;;;;28.83;19.83;;;;;;;;;;6275389;28;20112;-78
2023/01/02 15:04:44;;;;;;;27.45;20.00;;;;;;;;;;6277564;28;20090;-76
2023/01/02 15:07:48;;;;;;;29.58;20.25;;;;;;;;;;6275971;28;20128;-71
2023/01/02 15:13:02;;;;;;;33.08;21.95;;;;;;;;;;6278642;28;20049;-77
2023/01/02 15:14:21;;;;;;;32.83;20.88;;;;;;;;;;6280662;28;20345;-72
2023/01/02 15:17:24;;;;;;;33.35;19.20;;;;;;;;;;6278511;28;20335;-77
2023/01/02 15:20:26;;;;;;;29.83;20.25;;;;;;;;;;6280108;28;20110;-75
2023/01/02 15:23:28;;;;;;;31.33;20.63;;;;;;;;;;6278661;28;20044;-75
2023/01/02 15:26:33;;;;;;;31.70;20.10;;;;;;;;;;6277407;28;20404;-75
2023/01/02 15:29:35;;;;;;;32.58;20.98;;;;;;;;;;6280456;28;20040;-72
2023/01/02 15:32:37;;;;;;;36.67;22.48;;;;;;;;;;6278859;28;20059;-72
2023/01/02 15:35:38;;;;;;;32.70;21.73;;;;;;;;;;6281569;28;20045;-74
2023/01/02 15:38:40;;;;;;;34.42;21.50;;;;;;;;;;6280035;28;20053;-74
2023/01/02 15:41:45;;;;;;;37.15;22.10;;;;;;;;;;6279061;28;20225;-74
2023/01/02 15:48:06;;;;;;;33.70;20.77;;;;;;;;;;6273721;28;20053;-72
2023/01/02 15:51:14;;;;;;;37.60;21.98;;;;;;;;;;6270808;28;20114;-76
2023/01/02 15:54:17;;;;;;;33.17;20.70;;;;;;;;;;6271937;28;20438;-73
2023/01/02 15:57:24;;;;;;;33.67;21.15;;;;;;;;;;6272649;28;20049;-76
2023/01/02 16:00:34;;;;;;;31.98;20.10;;;;;;;;;;6275310;28;20415;-76
2023/01/02 16:03:38;;;;;;;30.08;20.90;;;;;;;;;;6273075;28;20086;-77
2023/01/02 16:06:41;;;;;;;32.33;20.45;;;;;;;;;;6273215;28;20174;-78
2023/01/02 16:09:51;;;;;;;33.20;21.02;;;;;;;;;;6275921;28;20313;-79
2023/01/02 16:12:56;;;;;;;31.65;19.98;;;;;;;;;;6274325;28;20235;-77
2023/01/02 16:15:58;;;;;;;30.25;19.35;;;;;;;;;;6272581;28;20093;-77
2023/01/02 16:19:00;;;;;;;30.58;19.17;;;;;;;;;;6274345;28;20044;-78
2023/01/02 16:22:05;;;;;;;35.03;19.92;;;;;;;;;;6277858;28;20073;-77
2023/01/02 16:25:09;;;;;;;30.95;19.02;;;;;;;;;;6275985;28;20084;-77
2023/01/02 16:28:15;;;;;;;30.63;18.65;;;;;;;;;;6278432;28;20061;-77
2023/01/02 16:31:19;;;;;;;30.38;18.73;;;;;;;;;;6281348;28;20065;-77
2023/01/02 16:34:29;;;;;;;31.67;19.27;;;;;;;;;;6276970;28;20063;-77
2023/01/02 16:37:35;;;;;;;29.73;19.13;;;;;;;;;;6277320;28;20057;-77
2023/01/02 16:40:51;;;;;;;28.95;17.85;;;;;;;;;;6273153;28;20275;-78
2023/01/02 16:43:54;;;;;;;27.48;17.88;;;;;;;;;;6273697;28;20214;-75
2023/01/02 16:46:56;;;;;;;27.42;18.42;;;;;;;;;;6276037;28;20076;-77
2023/01/02 16:49:58;;;;;;;27.98;18.17;;;;;;;;;;6273363;28;20053;-75
2023/01/02 16:53:03;;;;;;;28.13;17.08;;;;;;;;;;6273287;28;20351;-77
2023/01/02 16:56:05;;;;;;;25.88;16.42;;;;;;;;;;6277076;28;20045;-78
2023/01/02 16:59:08;;;;;;;26.85;16.95;;;;;;;;;;6274504;28;20061;-78
2023/01/02 17:02:12;;;;;;;27.60;17.77;;;;;;;;;;6272628;28;20057;-77
2023/01/02 17:05:17;;;;;;;26.77;16.00;;;;;;;;;;6274873;28;20066;-77
2023/01/02 17:08:19;;;;;;;28.55;18.52;;;;;;;;;;6275192;28;20049;-77
2023/01/02 17:11:22;;;;;;;28.15;16.38;;;;;;;;;;6273934;28;20080;-77
2023/01/02 17:14:26;;;;;;;25.83;17.00;;;;;;;;;;6272420;28;20057;-77
2023/01/02 17:17:28;;;;;;;25.75;16.85;;;;;;;;;;6273392;28;20060;-76
2023/01/02 17:20:29;;;;;;;25.42;16.90;;;;;;;;;;6276463;28;20380;-77
2023/01/02 17:23:31;;;;;;;40.97;26.88;;;;;;;;;;6271576;28;20048;-77
2023/01/02 17:26:34;;;;;;;25.35;17.27;;;;;;;;;;6277414;28;20069;-78
2023/01/02 17:29:37;;;;;;;24.98;16.90;;;;;;;;;;6277664;28;20045;-77
2023/01/02 17:32:39;;;;;;;21.90;15.38;;;;;;;;;;6278496;28;20049;-77
2023/01/02 17:35:40;;;;;;;22.77;16.10;;;;;;;;;;6279242;28;20049;-77
2023/01/02 17:38:42;;;;;;;22.10;16.15;;;;;;;;;;6280181;28;20049;-74
2023/01/02 17:41:44;;;;;;;24.02;15.85;;;;;;;;;;6279481;28;20267;-78
2023/01/02 17:44:47;;;;;;;25.92;16.90;;;;;;;;;;6277374;28;20390;-78
2023/01/02 17:47:48;;;;;;;23.35;16.20;;;;;;;;;;6276726;28;20049;-77
2023/01/02 17:50:50;;;;;;;23.30;16.20;;;;;;;;;;6276520;28;20380;-78
2023/01/02 17:53:52;;;;;;;23.48;15.82;;;;;;;;;;6277617;28;20244;-72
2023/01/02 17:56:54;;;;;;;23.25;15.48;;;;;;;;;;6275485;28;20057;-77
2023/01/02 17:59:57;;;;;;;25.00;16.58;;;;;;;;;;6277117;28;20045;-77
2023/01/02 18:02:59;;;;;;;22.97;15.67;;;;;;;;;;6277043;28;20055;-78
2023/01/02 18:06:04;;;;;;;21.60;14.73;;;;;;;;;;6275976;28;20232;-77
2023/01/02 18:09:07;;;;;;;23.38;15.63;;;;;;;;;;6278885;28;20075;-78
2023/01/02 18:12:09;;;;;;;23.67;15.80;;;;;;;;;;6276498;28;20257;-77